createdAt,value
2018-07-27T00:00:44.497Z,22.60
2018-07-27T00:05:42.964Z,22.60
2018-07-27T00:08:12.533Z,22.70
2018-07-27T00:10:42.174Z,22.70
2018-07-27T00:13:11.990Z,22.70
2018-07-27T00:15:41.624Z,22.70
2018-07-27T00:18:11.205Z,22.60
2018-07-27T00:20:42.146Z,22.30
2018-07-27T00:23:11.680Z,22.20
2018-07-27T00:25:41.776Z,22.10
2018-07-27T00:28:11.281Z,22.10
2018-07-27T00:30:41.100Z,22.10
2018-07-27T00:33:10.720Z,22.10
2018-07-27T00:35:40.312Z,22.20
2018-07-27T00:38:10.218Z,22.10
2018-07-27T00:40:40.956Z,22.10
2018-07-27T00:43:10.488Z,22.20
2018-07-27T00:45:40.269Z,22.20
2018-07-27T00:48:09.879Z,22.10
2018-07-27T00:50:39.416Z,22.00
2018-07-27T00:53:09.093Z,21.90
2018-07-27T00:55:38.808Z,22.00
2018-07-27T00:58:08.823Z,22.00
2018-07-27T01:00:38.464Z,22.00
2018-07-27T01:03:07.829Z,21.60
2018-07-27T01:05:37.438Z,21.10
2018-07-27T01:08:07.157Z,21.00
2018-07-27T01:10:36.683Z,20.90
2018-07-27T01:13:06.367Z,20.90
2018-07-27T01:15:35.979Z,21.10
2018-07-27T01:18:05.603Z,21.30
2018-07-27T01:20:35.185Z,21.50
2018-07-27T01:23:04.724Z,21.70
2018-07-27T01:25:34.502Z,21.70
2018-07-27T01:28:04.504Z,21.50
2018-07-27T01:30:34.646Z,21.40
2018-07-27T01:33:04.456Z,21.30
2018-07-27T01:35:33.982Z,21.30
2018-07-27T01:38:03.600Z,21.30
2018-07-27T01:40:33.274Z,21.40
2018-07-27T01:43:02.882Z,21.40
2018-07-27T01:45:32.489Z,21.30
2018-07-27T01:48:02.029Z,21.20
2018-07-27T01:53:00.627Z,20.80
2018-07-27T01:55:30.440Z,20.60
2018-07-27T01:58:00.122Z,20.90
2018-07-27T02:00:30.110Z,21.00
2018-07-27T02:02:59.879Z,21.10
2018-07-27T02:05:29.487Z,21.20
2018-07-27T02:07:58.993Z,21.30
2018-07-27T02:10:28.595Z,21.20
2018-07-27T02:12:58.359Z,21.00
2018-07-27T02:15:27.985Z,21.00
2018-07-27T02:17:58.210Z,20.90
2018-07-27T02:20:27.820Z,20.90
2018-07-27T02:22:57.320Z,20.90
2018-07-27T02:25:26.825Z,20.80
2018-07-27T02:27:56.565Z,20.80
2018-07-27T02:30:26.072Z,20.80
2018-07-27T02:32:56.001Z,20.70
2018-07-27T02:35:25.870Z,20.60
2018-07-27T02:37:55.583Z,20.70
2018-07-27T02:40:25.189Z,20.60
2018-07-27T02:42:54.620Z,20.60
2018-07-27T02:45:24.335Z,20.70
2018-07-27T02:47:54.014Z,20.60
2018-07-27T02:50:24.758Z,20.50
2018-07-27T02:52:54.253Z,20.40
2018-07-27T02:55:23.793Z,20.40
2018-07-27T02:57:53.670Z,20.40
2018-07-27T03:00:23.207Z,20.30
2018-07-27T03:02:52.821Z,20.20
2018-07-27T03:05:22.945Z,20.10
2018-07-27T03:07:52.816Z,20.10
2018-07-27T03:10:22.732Z,20.20
2018-07-27T03:12:52.341Z,20.30
2018-07-27T03:15:21.768Z,20.30
2018-07-27T03:17:51.275Z,20.20
2018-07-27T03:20:21.090Z,20.10
2018-07-27T03:22:50.770Z,20.10
2018-07-27T03:25:20.405Z,20.30
2018-07-27T03:27:49.918Z,20.20
2018-07-27T03:30:19.705Z,20.30
2018-07-27T03:32:49.303Z,20.40
2018-07-27T03:35:18.904Z,20.40
2018-07-27T03:37:48.902Z,20.30
2018-07-27T03:40:18.780Z,20.30
2018-07-27T03:42:48.348Z,20.20
2018-07-27T03:45:17.960Z,20.00
2018-07-27T03:47:47.695Z,19.90
2018-07-27T03:50:17.274Z,19.90
2018-07-27T03:52:46.712Z,19.90
2018-07-27T03:55:16.287Z,19.90
2018-07-27T03:57:46.308Z,20.00
2018-07-27T04:00:16.017Z,20.10
2018-07-27T04:02:45.645Z,20.10
2018-07-27T04:05:15.331Z,20.20
2018-07-27T04:07:44.834Z,20.20
2018-07-27T04:10:15.748Z,20.10
2018-07-27T04:12:45.815Z,19.90
2018-07-27T04:15:15.324Z,19.80
2018-07-27T04:17:52.247Z,19.70
2018-07-27T04:20:21.808Z,19.70
2018-07-27T04:22:51.415Z,19.60
2018-07-27T04:25:21.104Z,19.70
2018-07-27T04:27:51.019Z,19.70
2018-07-27T04:30:20.832Z,19.70
2018-07-27T04:32:51.360Z,19.80
2018-07-27T04:35:21.172Z,19.80
2018-07-27T04:37:50.762Z,19.70
2018-07-27T04:40:20.597Z,19.70
2018-07-27T04:42:50.446Z,19.70
2018-07-27T04:47:49.000Z,19.90
2018-07-27T04:50:19.840Z,19.90
2018-07-27T04:52:49.372Z,20.10
2018-07-27T04:55:18.612Z,20.10
2018-07-27T04:57:47.842Z,20.10
2018-07-27T05:00:17.149Z,20.10
2018-07-27T05:02:46.441Z,20.20
2018-07-27T05:05:15.668Z,20.20
2018-07-27T05:07:44.889Z,20.10
2018-07-27T05:10:19.344Z,20.10
2018-07-27T05:12:48.657Z,20.20
2018-07-27T05:15:17.960Z,20.20
2018-07-27T05:17:47.277Z,20.40
2018-07-27T05:20:16.533Z,20.40
2018-07-27T05:22:45.803Z,20.50
2018-07-27T05:25:15.074Z,20.50
2018-07-27T05:27:44.333Z,20.60
2018-07-27T05:30:13.659Z,20.70
2018-07-27T05:32:42.864Z,20.80
2018-07-27T05:35:12.067Z,21.10
2018-07-27T05:37:41.283Z,21.30
2018-07-27T05:40:10.550Z,21.50
2018-07-27T05:42:39.832Z,21.80
2018-07-27T05:45:09.332Z,22.00
2018-07-27T05:47:38.805Z,22.20
2018-07-27T05:50:08.403Z,22.50
2018-07-27T05:52:37.672Z,22.50
2018-07-27T05:55:06.900Z,22.60
2018-07-27T05:57:36.171Z,22.70
2018-07-27T06:00:06.976Z,22.90
2018-07-27T06:02:36.217Z,22.90
2018-07-27T06:05:06.740Z,23.10
2018-07-27T06:07:35.962Z,23.20
2018-07-27T06:10:05.748Z,23.30
2018-07-27T06:12:35.054Z,23.30
2018-07-27T06:15:05.139Z,23.20
2018-07-27T06:17:34.388Z,23.10
2018-07-27T06:20:04.009Z,23.10
2018-07-27T06:22:33.268Z,23.30
2018-07-27T06:25:02.578Z,23.30
2018-07-27T06:27:31.844Z,23.30
2018-07-27T06:30:01.200Z,23.40
2018-07-27T06:32:30.499Z,23.40
2018-07-27T06:34:59.742Z,23.50
2018-07-27T06:37:28.996Z,23.70
2018-07-27T06:39:58.585Z,23.90
2018-07-27T06:42:27.813Z,24.00
2018-07-27T06:44:57.081Z,24.10
2018-07-27T06:47:26.305Z,24.20
2018-07-27T06:49:55.928Z,24.40
2018-07-27T06:52:25.518Z,24.50
2018-07-27T06:54:55.036Z,24.80
2018-07-27T06:57:24.294Z,24.80
2018-07-27T06:59:53.703Z,24.80
2018-07-27T07:02:22.901Z,24.70
2018-07-27T07:04:52.124Z,25.10
2018-07-27T07:07:21.471Z,25.10
2018-07-27T07:09:50.807Z,25.30
2018-07-27T07:12:20.098Z,25.30
2018-07-27T07:14:49.336Z,25.30
2018-07-27T07:17:18.672Z,25.40
2018-07-27T07:19:48.106Z,25.40
2018-07-27T07:22:17.815Z,25.30
2018-07-27T07:24:47.145Z,25.30
2018-07-27T07:27:16.424Z,25.30
2018-07-27T07:29:45.720Z,25.60
2018-07-27T07:32:14.945Z,25.70
2018-07-27T07:34:44.184Z,25.90
2018-07-27T07:37:13.411Z,26.00
2018-07-27T07:39:42.708Z,26.00
2018-07-27T07:42:11.934Z,25.90
2018-07-27T07:44:41.180Z,25.60
2018-07-27T07:47:10.413Z,25.40
2018-07-27T07:49:39.713Z,25.60
2018-07-27T07:52:08.984Z,25.80
2018-07-27T07:54:38.484Z,25.80
2018-07-27T07:57:07.889Z,25.80
2018-07-27T07:59:37.246Z,25.90
2018-07-27T08:02:06.696Z,26.20
2018-07-27T08:04:35.923Z,26.30
2018-07-27T08:07:05.568Z,26.30
2018-07-27T08:12:03.552Z,26.30
2018-07-27T08:14:32.783Z,26.40
2018-07-27T08:17:02.039Z,26.90
2018-07-27T08:19:31.308Z,26.80
2018-07-27T08:22:00.545Z,26.80
2018-07-27T08:24:29.779Z,27.00
2018-07-27T08:27:00.171Z,27.10
2018-07-27T08:29:30.764Z,27.00
2018-07-27T08:32:00.485Z,27.00
2018-07-27T08:34:29.736Z,27.20
2018-07-27T08:36:58.975Z,27.50
2018-07-27T08:39:30.536Z,27.20
2018-07-27T08:41:59.830Z,27.10
2018-07-27T08:44:30.368Z,27.60
2018-07-27T08:46:59.688Z,28.00
2018-07-27T08:49:28.931Z,27.70
2018-07-27T08:51:58.229Z,27.60
2018-07-27T08:54:27.461Z,27.70
2018-07-27T08:56:56.754Z,27.90
2018-07-27T08:59:26.128Z,28.10
2018-07-27T09:01:55.603Z,28.50
2018-07-27T09:04:24.832Z,28.60
2018-07-27T09:06:54.194Z,28.80
2018-07-27T09:09:23.473Z,29.00
2018-07-27T09:11:52.697Z,29.00
2018-07-27T09:16:50.656Z,29.20
2018-07-27T09:19:19.924Z,29.20
2018-07-27T09:21:49.152Z,29.20
2018-07-27T09:24:18.530Z,29.60
2018-07-27T09:26:47.672Z,29.50
2018-07-27T09:29:16.952Z,29.60
2018-07-27T09:31:46.262Z,29.60
2018-07-27T09:34:15.632Z,29.60
2018-07-27T09:36:44.816Z,29.80
2018-07-27T09:39:14.151Z,29.90
2018-07-27T09:41:43.367Z,30.20
2018-07-27T09:44:12.616Z,30.30
2018-07-27T09:46:41.872Z,30.40
2018-07-27T09:49:11.147Z,30.40
2018-07-27T09:51:40.414Z,30.50
2018-07-27T09:54:09.645Z,30.60
2018-07-27T09:56:38.845Z,30.40
2018-07-27T09:59:08.144Z,30.50
2018-07-27T10:01:37.412Z,30.60
2018-07-27T10:04:07.016Z,30.80
2018-07-27T10:06:36.343Z,31.20
2018-07-27T10:09:07.752Z,31.40
2018-07-27T10:11:36.993Z,31.40
2018-07-27T10:14:06.220Z,31.40
2018-07-27T10:16:35.455Z,31.40
2018-07-27T10:19:04.878Z,31.50
2018-07-27T10:21:34.168Z,31.50
2018-07-27T10:24:03.463Z,31.80
2018-07-27T10:26:32.720Z,31.80
2018-07-27T10:29:01.994Z,32.00
2018-07-27T10:31:31.237Z,32.00
2018-07-27T10:34:00.504Z,32.40
2018-07-27T10:36:29.720Z,32.70
2018-07-27T10:38:59.123Z,32.50
2018-07-27T10:41:28.368Z,32.60
2018-07-27T10:43:57.597Z,32.90
2018-07-27T10:46:26.820Z,32.80
2018-07-27T10:48:56.095Z,32.80
2018-07-27T10:51:25.295Z,32.80
2018-07-27T10:53:54.515Z,33.00
2018-07-27T10:56:23.802Z,33.30
2018-07-27T10:58:53.096Z,33.50
2018-07-27T11:01:22.359Z,33.50
2018-07-27T11:06:20.300Z,33.80
2018-07-27T11:08:49.610Z,33.90
2018-07-27T11:11:18.976Z,34.00
2018-07-27T11:13:48.184Z,34.20
2018-07-27T11:16:17.415Z,34.00
2018-07-27T11:18:46.767Z,34.00
2018-07-27T11:21:16.022Z,34.10
2018-07-27T11:26:13.952Z,34.60
2018-07-27T11:28:43.232Z,34.60
2018-07-27T11:31:12.531Z,34.70
2018-07-27T11:33:41.867Z,34.70
2018-07-27T11:36:11.157Z,34.80
2018-07-27T11:38:40.443Z,34.80
2018-07-27T11:41:09.784Z,35.00
2018-07-27T11:43:39.064Z,35.40
2018-07-27T11:46:08.292Z,35.30
2018-07-27T11:48:37.705Z,35.30
2018-07-27T11:51:07.422Z,35.60
2018-07-27T11:53:36.724Z,35.80
2018-07-27T11:56:06.075Z,36.00
2018-07-27T11:58:35.407Z,35.20
2018-07-27T12:01:04.721Z,35.20
2018-07-27T12:03:34.100Z,35.10
2018-07-27T12:06:03.590Z,35.90
2018-07-27T12:08:32.960Z,36.20
2018-07-27T12:11:02.312Z,36.00
2018-07-27T12:13:31.689Z,36.40
2018-07-27T12:16:01.135Z,36.30
2018-07-27T12:18:30.471Z,36.00
2018-07-27T12:20:59.810Z,36.40
2018-07-27T12:23:29.174Z,36.60
2018-07-27T12:25:58.728Z,36.50
2018-07-27T12:28:28.023Z,35.40
2018-07-27T12:30:57.376Z,34.60
2018-07-27T12:33:26.708Z,34.10
2018-07-27T12:35:55.980Z,33.70
2018-07-27T12:38:25.436Z,33.10
2018-07-27T12:40:54.786Z,32.80
2018-07-27T12:43:24.148Z,32.50
2018-07-27T12:45:53.861Z,32.30
2018-07-27T12:48:23.427Z,32.10
2018-07-27T12:50:52.808Z,32.20
2018-07-27T12:53:22.100Z,32.20
2018-07-27T12:55:51.459Z,32.10
2018-07-27T12:58:20.767Z,32.30
2018-07-27T13:00:50.117Z,33.50
2018-07-27T13:03:19.451Z,34.70
2018-07-27T13:05:48.844Z,35.80
2018-07-27T13:08:18.184Z,36.40
2018-07-27T13:13:16.306Z,37.40
2018-07-27T13:15:45.649Z,37.60
2018-07-27T13:18:15.022Z,38.20
2018-07-27T13:20:50.280Z,38.30
2018-07-27T13:23:20.268Z,38.50
2018-07-27T13:28:36.989Z,38.90
2018-07-27T13:31:06.386Z,39.30
2018-07-27T13:33:35.713Z,39.30
2018-07-27T13:36:05.078Z,39.80
2018-07-27T13:38:34.428Z,40.00
2018-07-27T13:41:03.853Z,40.20
2018-07-27T13:43:33.204Z,40.20
2018-07-27T13:46:02.527Z,39.60
2018-07-27T13:48:31.899Z,40.40
2018-07-27T13:51:01.328Z,40.40
2018-07-27T13:53:30.677Z,40.70
2018-07-27T13:56:00.097Z,40.10
2018-07-27T13:58:29.378Z,40.50
2018-07-27T14:00:58.811Z,40.60
2018-07-27T14:03:28.118Z,40.70
2018-07-27T14:05:57.480Z,40.50
2018-07-27T14:10:55.706Z,40.50
2018-07-27T14:13:25.009Z,40.40
2018-07-27T14:15:54.286Z,40.60
2018-07-27T14:18:23.596Z,40.30
2018-07-27T14:23:23.042Z,40.40
2018-07-27T14:25:52.419Z,40.60
2018-07-27T14:28:21.785Z,40.60
2018-07-27T14:30:51.140Z,40.50
2018-07-27T14:33:20.488Z,40.10
2018-07-27T14:35:49.869Z,40.40
2018-07-27T14:38:19.167Z,40.50
2018-07-27T14:40:48.565Z,40.90
2018-07-27T14:43:17.908Z,41.10
2018-07-27T14:45:47.345Z,40.80
2018-07-27T14:48:17.703Z,41.00
2018-07-27T14:50:47.071Z,40.90
2018-07-27T14:53:16.402Z,41.50
2018-07-27T14:55:45.831Z,40.90
2018-07-27T14:58:15.180Z,39.30
2018-07-27T15:00:44.644Z,40.10
2018-07-27T15:03:13.967Z,40.70
2018-07-27T15:05:43.324Z,41.20
2018-07-27T15:08:12.723Z,41.70
2018-07-27T15:10:42.225Z,41.60
2018-07-27T15:13:11.664Z,42.20
2018-07-27T15:15:41.132Z,41.90
2018-07-27T15:18:10.457Z,42.10
2018-07-27T15:20:39.968Z,42.30
2018-07-27T15:23:09.417Z,42.10
2018-07-27T15:25:39.130Z,42.20
2018-07-27T15:28:09.267Z,42.20
2018-07-27T15:30:38.669Z,41.70
2018-07-27T15:33:08.008Z,42.00
2018-07-27T15:35:37.521Z,41.90
2018-07-27T15:38:07.116Z,40.90
2018-07-27T15:40:36.483Z,41.30
2018-07-27T15:43:05.859Z,41.60
2018-07-27T15:45:35.277Z,41.40
2018-07-27T15:48:04.668Z,41.80
2018-07-27T15:50:34.067Z,41.90
2018-07-27T15:53:03.390Z,41.30
2018-07-27T15:55:32.764Z,41.40
2018-07-27T15:58:02.176Z,41.50
2018-07-27T16:00:31.679Z,41.50
2018-07-27T16:03:01.008Z,41.60
2018-07-27T16:05:30.328Z,41.50
2018-07-27T16:07:59.983Z,41.30
2018-07-27T16:10:30.288Z,41.70
2018-07-27T16:13:00.008Z,41.20
2018-07-27T16:15:29.394Z,41.30
2018-07-27T16:17:58.754Z,41.00
2018-07-27T16:20:28.173Z,40.80
2018-07-27T16:22:57.624Z,40.00
2018-07-27T16:25:27.015Z,39.40
2018-07-27T16:27:56.341Z,39.00
2018-07-27T16:30:26.076Z,38.70
2018-07-27T16:32:55.441Z,38.00
2018-07-27T16:35:24.825Z,37.80
2018-07-27T16:37:54.180Z,37.20
2018-07-27T16:40:23.609Z,36.50
2018-07-27T16:42:53.024Z,35.70
2018-07-27T16:45:22.416Z,35.40
2018-07-27T16:47:51.707Z,35.30
2018-07-27T16:50:21.149Z,35.10
2018-07-27T16:52:50.504Z,34.80
2018-07-27T16:55:19.872Z,34.40
2018-07-27T16:57:49.356Z,34.20
2018-07-27T17:00:18.748Z,33.90
2018-07-27T17:02:48.125Z,33.80
2018-07-27T17:05:17.528Z,33.70
2018-07-27T17:07:46.839Z,33.80
2018-07-27T17:10:16.219Z,33.40
2018-07-27T17:12:45.615Z,32.90
2018-07-27T17:15:15.033Z,32.50
2018-07-27T17:17:44.360Z,32.20
2018-07-27T17:20:13.839Z,32.00
2018-07-27T17:22:43.232Z,31.90
2018-07-27T17:25:12.651Z,31.70
2018-07-27T17:27:41.904Z,31.50
2018-07-27T17:30:11.360Z,31.50
2018-07-27T17:32:40.740Z,31.60
2018-07-27T17:35:10.496Z,31.40
2018-07-27T17:37:39.963Z,31.30
2018-07-27T17:40:09.701Z,31.30
2018-07-27T17:42:39.052Z,31.20
2018-07-27T17:45:09.141Z,31.00
2018-07-27T17:47:38.847Z,30.80
2018-07-27T17:50:08.312Z,30.60
2018-07-27T17:52:37.619Z,30.50
2018-07-27T17:55:07.013Z,30.60
2018-07-27T17:57:36.477Z,30.40
2018-07-27T18:00:06.758Z,30.10
2018-07-27T18:02:36.241Z,30.10
2018-07-27T18:05:05.980Z,30.10
2018-07-27T18:07:35.359Z,30.10
2018-07-27T18:10:05.271Z,30.00
2018-07-27T18:12:34.575Z,29.90
2018-07-27T18:15:04.106Z,29.80
2018-07-27T18:20:02.334Z,29.60
2018-07-27T18:22:31.693Z,29.50
2018-07-27T18:25:01.014Z,29.40
2018-07-27T18:27:30.360Z,29.30
2018-07-27T18:29:59.767Z,29.10
2018-07-27T18:32:29.152Z,29.10
2018-07-27T18:34:58.485Z,29.00
2018-07-27T18:37:27.828Z,29.00
2018-07-27T18:39:57.270Z,28.90
2018-07-27T18:42:26.807Z,28.90
2018-07-27T18:44:56.180Z,28.80
2018-07-27T18:47:25.504Z,28.80
2018-07-27T18:49:54.962Z,28.80
2018-07-27T18:52:24.367Z,28.80
2018-07-27T18:54:53.737Z,28.90
2018-07-27T18:59:51.880Z,28.80
2018-07-27T19:02:21.279Z,28.70
2018-07-27T19:04:50.556Z,28.50
2018-07-27T19:07:19.888Z,28.40
2018-07-27T19:09:52.964Z,28.30
2018-07-27T19:12:22.659Z,28.20
2018-07-27T19:14:52.268Z,28.20
2018-07-27T19:17:21.668Z,28.00
2018-07-27T19:19:51.057Z,28.00
2018-07-27T19:22:20.355Z,27.90
2018-07-27T19:24:49.632Z,27.80
2018-07-27T19:27:19.038Z,27.70
2018-07-27T19:29:48.479Z,27.80
2018-07-27T19:32:17.805Z,27.80
2018-07-27T19:34:47.152Z,27.70
2018-07-27T19:37:16.448Z,27.70
2018-07-27T19:39:45.987Z,27.50
2018-07-27T19:42:15.265Z,27.30
2018-07-27T19:44:45.614Z,27.20
2018-07-27T19:47:14.983Z,27.20
2018-07-27T19:49:44.401Z,27.30
2018-07-27T19:52:13.788Z,27.40
2018-07-27T19:54:43.138Z,27.50
2018-07-27T19:57:12.440Z,27.40
2018-07-27T19:59:41.809Z,27.10
2018-07-27T20:02:11.128Z,26.60
2018-07-27T20:04:40.470Z,26.30
2018-07-27T20:07:09.753Z,26.30
2018-07-27T20:09:39.108Z,26.40
2018-07-27T20:12:08.420Z,26.30
2018-07-27T20:14:37.733Z,26.30
2018-07-27T20:17:07.458Z,26.50
2018-07-27T20:19:38.025Z,26.50
2018-07-27T20:22:07.320Z,26.40
2018-07-27T20:24:36.649Z,26.40
2018-07-27T20:27:06.361Z,26.50
2018-07-27T20:29:35.804Z,26.50
2018-07-27T20:32:05.315Z,26.60
2018-07-27T20:34:34.768Z,26.60
2018-07-27T20:39:33.044Z,26.70
2018-07-27T20:44:31.692Z,26.60
2018-07-27T20:47:02.594Z,26.60
2018-07-27T20:49:34.769Z,26.60
2018-07-27T20:52:05.780Z,26.50
2018-07-27T20:54:38.167Z,26.50
2018-07-27T20:57:10.283Z,26.60
2018-07-27T20:59:42.323Z,26.70
2018-07-27T21:02:12.522Z,26.70
2018-07-27T21:04:42.556Z,26.70
2018-07-27T21:07:13.877Z,26.70
2018-07-27T21:09:44.228Z,26.70
2018-07-27T21:12:14.353Z,26.50
2018-07-27T21:14:44.559Z,26.30
2018-07-27T21:17:14.578Z,26.30
2018-07-27T21:19:44.307Z,26.30
2018-07-27T21:22:13.607Z,26.40
2018-07-27T21:24:42.837Z,26.40
2018-07-27T21:27:12.040Z,26.40
2018-07-27T21:29:41.314Z,26.40
2018-07-27T21:32:10.535Z,26.40
2018-07-27T21:34:39.732Z,26.40
2018-07-27T21:37:08.932Z,26.40
2018-07-27T21:39:38.251Z,26.40
2018-07-27T21:42:07.553Z,26.40
2018-07-27T21:44:36.801Z,26.40
2018-07-27T21:47:06.055Z,26.40
2018-07-27T21:49:35.306Z,26.50
2018-07-27T21:52:04.727Z,26.50
2018-07-27T21:54:34.136Z,26.50
2018-07-27T21:57:03.560Z,26.50
2018-07-27T21:59:32.840Z,26.40
2018-07-27T22:02:02.237Z,26.10
2018-07-27T22:04:31.502Z,25.90
2018-07-27T22:07:00.741Z,26.00
2018-07-27T22:09:30.065Z,26.00
2018-07-27T22:11:59.345Z,26.10
2018-07-27T22:14:28.581Z,26.00
2018-07-27T22:16:58.148Z,25.90
2018-07-27T22:19:27.413Z,25.90
2018-07-27T22:21:56.663Z,25.90
2018-07-27T22:24:25.945Z,25.90
2018-07-27T22:26:55.244Z,25.80
2018-07-27T22:29:24.544Z,25.90
2018-07-27T22:31:53.811Z,25.70
2018-07-27T22:34:23.043Z,25.70
2018-07-27T22:36:52.289Z,25.60
2018-07-27T22:39:21.643Z,25.40
2018-07-27T22:41:50.844Z,25.40
2018-07-27T22:44:20.079Z,25.30
2018-07-27T22:46:49.408Z,25.30
2018-07-27T22:49:18.708Z,25.30
2018-07-27T22:51:47.930Z,25.10
2018-07-27T22:54:17.160Z,25.20
2018-07-27T22:56:46.408Z,25.30
2018-07-27T22:59:15.844Z,25.60
2018-07-27T23:01:45.069Z,25.80
2018-07-27T23:04:14.308Z,25.70
2018-07-27T23:06:43.540Z,25.60
2018-07-27T23:09:12.854Z,25.50
2018-07-27T23:11:42.106Z,25.50
2018-07-27T23:14:11.339Z,25.40
2018-07-27T23:16:40.605Z,25.30
2018-07-27T23:19:09.936Z,25.40
2018-07-27T23:21:39.169Z,25.40
2018-07-27T23:24:08.492Z,25.50
2018-07-27T23:26:37.769Z,25.40
2018-07-27T23:29:07.140Z,25.30
2018-07-27T23:31:36.445Z,25.30
2018-07-27T23:34:05.772Z,25.30
2018-07-27T23:36:35.010Z,25.30
2018-07-27T23:39:06.872Z,25.30
2018-07-27T23:41:36.125Z,25.30
2018-07-27T23:44:05.700Z,25.30
2018-07-27T23:46:34.931Z,25.30
2018-07-27T23:49:04.327Z,25.20
2018-07-27T23:51:33.807Z,25.10
2018-07-27T23:54:03.034Z,25.00
2018-07-27T23:56:32.262Z,25.00
2018-07-27T23:59:01.617Z,25.00
